This is the latest recevied weather packets stored in our database for station/object KX4O-13. If no packets are shown the sender has not sent any weather packets the latest 10 day(s).
| Time | Temp. | Humidity | Pressure | Rain* | Wind** | Luminosity | Snow |
|---|---|---|---|---|---|---|---|
| 1777833656 | 16.67° C | 34% | 1016.2 hPa | 0 mm | - | 947 W/m² | - |
| 1777833356 | 15.56° C | 37% | 1016.2 hPa | 0 mm | - | 865 W/m² | - |
| 1777833056 | 15.56° C | 34% | 1016.3 hPa | 0 mm | - | 865 W/m² | - |
| 1777832756 | 15.56° C | 35% | 1016.2 hPa | 0 mm | - | 874 W/m² | - |
| 1777832456 | 15.56° C | 38% | 1016.3 hPa | 0 mm | - | 875 W/m² | - |
| 1777832156 | 15.56° C | 33% | 1016.3 hPa | 0 mm | - | 877 W/m² | - |
| 1777831856 | 15° C | 39% | 1016.3 hPa | 0 mm | - | 891 W/m² | - |
| 1777831556 | 15.56° C | 37% | 1016.5 hPa | 0 mm | - | 976 W/m² | - |
| 1777831256 | 16.11° C | 40% | 1016.5 hPa | 0 mm | - | 991 W/m² | - |
| 1777830956 | 14.44° C | 34% | 1016.5 hPa | 0 mm | - | 237 W/m² | - |
| 1777830656 | 15.56° C | 34% | 1016.6 hPa | 0 mm | - | 993 W/m² | - |
| 1777830356 | 14.44° C | 36% | 1016.5 hPa | 0 mm | - | 949 W/m² | - |
| 1777830056 | 15° C | 37% | 1016.7 hPa | 0 mm | - | 940 W/m² | - |
| 1777829756 | 15° C | 38% | 1016.7 hPa | 0 mm | - | 928 W/m² | - |
| 1777829456 | 15° C | 37% | 1016.7 hPa | 0 mm | - | 932 W/m² | - |
| 1777829156 | 13.89° C | 38% | 1016.7 hPa | 0 mm | - | 939 W/m² | - |
| 1777828856 | 13.89° C | 37% | 1016.8 hPa | 0 mm | - | 995 W/m² | - |
| 1777828556 | 14.44° C | 39% | 1016.9 hPa | 0 mm | - | 977 W/m² | - |
| 1777828256 | 13.89° C | 39% | 1017 hPa | 0 mm | - | 1013 W/m² | - |
| 1777827956 | 13.89° C | 36% | 1017 hPa | 0 mm | - | 965 W/m² | - |
| 1777827656 | 13.89° C | 36% | 1017 hPa | 0 mm | - | 956 W/m² | - |
| 1777827356 | 13.89° C | 36% | 1017.1 hPa | 0 mm | - | 965 W/m² | - |
| 1777827056 | 14.44° C | 38% | 1017.1 hPa | 0 mm | - | 1032 W/m² | - |
| 1777826756 | 12.78° C | 40% | 1017.1 hPa | 0 mm | - | 1021 W/m² | - |
| 1777826456 | 12.78° C | 39% | 1017.2 hPa | 0 mm | - | 939 W/m² | - |
* Rain latest hour (hover to see other rain measurements)
** Current wind speed in m/s (hover to see current wind gust speed)